createdAt,value
2023-01-29T00:02:13.251Z,74.20
2023-01-29T00:05:27.408Z,74.15
2023-01-29T00:08:30.745Z,73.59
2023-01-29T00:11:33.505Z,73.39
2023-01-29T00:14:35.896Z,73.83
2023-01-29T00:17:38.527Z,73.29
2023-01-29T00:20:43.739Z,73.70
2023-01-29T00:23:47.221Z,74.18
2023-01-29T00:26:50.337Z,74.94
2023-01-29T00:30:11.977Z,75.33
2023-01-29T00:33:14.524Z,75.54
2023-01-29T00:36:19.619Z,75.70
2023-01-29T00:39:31.425Z,75.77
2023-01-29T00:43:02.887Z,75.58
2023-01-29T00:46:06.590Z,75.85
2023-01-29T00:49:10.031Z,75.44
2023-01-29T00:52:24.138Z,75.80
2023-01-29T00:55:26.805Z,76.29
2023-01-29T00:58:34.271Z,76.08
2023-01-29T01:01:55.277Z,76.07
2023-01-29T01:04:57.761Z,76.17
2023-01-29T01:08:00.433Z,76.33
2023-01-29T01:11:06.220Z,76.08
2023-01-29T01:14:09.481Z,76.32
2023-01-29T01:17:11.816Z,76.45
2023-01-29T01:20:15.699Z,76.26
2023-01-29T01:23:21.039Z,76.22
2023-01-29T01:26:23.792Z,76.17
2023-01-29T01:29:26.119Z,76.24
2023-01-29T01:32:28.791Z,76.30
2023-01-29T01:35:31.239Z,76.52
2023-01-29T01:38:33.921Z,76.74
2023-01-29T01:41:36.679Z,76.74
2023-01-29T01:44:53.430Z,76.83
2023-01-29T01:48:01.405Z,77.01
2023-01-29T01:51:06.499Z,76.83
2023-01-29T01:54:18.603Z,76.84
2023-01-29T01:57:25.391Z,77.08
2023-01-29T02:00:28.243Z,77.19
2023-01-29T02:03:52.085Z,77.06
2023-01-29T02:07:14.591Z,77.18
2023-01-29T02:10:18.956Z,77.42
2023-01-29T02:13:21.916Z,77.26
2023-01-29T02:16:24.323Z,76.83
2023-01-29T02:19:38.845Z,77.19
2023-01-29T02:23:02.612Z,76.89
2023-01-29T02:26:47.528Z,77.36
2023-01-29T02:30:13.857Z,77.25
2023-01-29T02:33:54.183Z,77.28
2023-01-29T02:37:11.152Z,77.14
2023-01-29T02:40:27.295Z,77.42
2023-01-29T02:43:35.462Z,77.29
2023-01-29T02:47:00.485Z,77.38
2023-01-29T02:50:05.560Z,77.36
2023-01-29T02:53:17.065Z,77.44
2023-01-29T02:56:27.967Z,77.27
2023-01-29T02:59:44.130Z,77.52
2023-01-29T03:03:20.216Z,77.40
2023-01-29T03:06:28.401Z,77.88
2023-01-29T03:09:39.595Z,78.11
2023-01-29T03:12:47.049Z,78.13
2023-01-29T03:16:01.611Z,78.14
2023-01-29T03:19:13.412Z,78.10
2023-01-29T03:22:17.389Z,78.12
2023-01-29T03:25:41.393Z,77.38
2023-01-29T03:29:06.095Z,77.27
2023-01-29T03:32:10.412Z,77.23
2023-01-29T03:35:21.034Z,77.39
2023-01-29T03:38:29.681Z,77.42
2023-01-29T03:41:47.649Z,77.34
2023-01-29T03:45:02.313Z,77.86
2023-01-29T03:48:37.012Z,77.70
2023-01-29T03:51:46.061Z,77.07
2023-01-29T03:55:35.420Z,77.01
2023-01-29T03:58:56.063Z,77.28
2023-01-29T04:02:05.781Z,76.97
2023-01-29T04:05:19.410Z,76.96
2023-01-29T04:08:28.174Z,76.70
2023-01-29T04:11:36.204Z,76.37
2023-01-29T04:14:39.440Z,76.19
2023-01-29T04:17:45.767Z,76.41
2023-01-29T04:20:48.419Z,76.26
2023-01-29T04:23:51.027Z,75.92
2023-01-29T04:27:21.290Z,75.31
2023-01-29T04:30:43.857Z,74.65
2023-01-29T04:34:13.894Z,74.70
2023-01-29T04:37:27.076Z,74.29
2023-01-29T04:41:04.995Z,74.64
2023-01-29T04:44:46.779Z,74.61
2023-01-29T04:48:00.339Z,74.60
2023-01-29T04:51:19.932Z,74.93
2023-01-29T04:54:41.083Z,74.84
2023-01-29T04:57:53.280Z,74.65
2023-01-29T05:00:56.546Z,74.45
2023-01-29T05:04:04.653Z,74.24
2023-01-29T05:07:11.901Z,74.28
2023-01-29T05:10:18.356Z,74.06
2023-01-29T05:13:23.432Z,73.82
2023-01-29T05:16:30.143Z,73.81
2023-01-29T05:19:32.500Z,73.44
2023-01-29T05:22:39.908Z,73.62
2023-01-29T05:25:42.296Z,73.32
2023-01-29T05:28:44.915Z,73.27
2023-01-29T05:31:47.393Z,73.25
2023-01-29T05:34:50.168Z,73.21
2023-01-29T05:37:52.458Z,73.01
2023-01-29T05:40:55.309Z,73.12
2023-01-29T05:43:57.624Z,72.86
2023-01-29T05:47:02.657Z,72.49
2023-01-29T05:50:06.430Z,72.88
2023-01-29T05:53:09.363Z,72.67
2023-01-29T05:56:11.747Z,72.45
2023-01-29T05:59:15.852Z,72.42
2023-01-29T06:02:18.251Z,72.45
2023-01-29T06:05:21.069Z,72.63
2023-01-29T06:08:23.379Z,72.99
2023-01-29T06:11:26.085Z,72.86
2023-01-29T06:14:28.815Z,73.23
2023-01-29T06:17:31.428Z,73.52
2023-01-29T06:20:33.817Z,73.86
2023-01-29T06:23:36.683Z,73.95
2023-01-29T06:26:39.120Z,74.59
2023-01-29T06:29:41.672Z,74.64
2023-01-29T06:32:44.038Z,74.92
2023-01-29T06:35:46.711Z,75.36
2023-01-29T06:38:49.243Z,75.72
2023-01-29T06:41:52.012Z,75.87
2023-01-29T06:44:55.463Z,76.21
2023-01-29T06:48:00.488Z,76.10
2023-01-29T06:51:08.610Z,76.02
2023-01-29T06:54:11.319Z,75.91
2023-01-29T06:57:13.664Z,76.02
2023-01-29T07:00:17.357Z,75.94
2023-01-29T07:03:19.840Z,75.90
2023-01-29T07:06:27.744Z,75.72
2023-01-29T07:09:30.130Z,75.56
2023-01-29T07:12:33.007Z,75.30
2023-01-29T07:15:37.331Z,75.57
2023-01-29T07:18:40.014Z,75.50
2023-01-29T07:21:42.323Z,75.22
2023-01-29T07:24:45.087Z,75.49
2023-01-29T07:27:47.500Z,75.19
2023-01-29T07:30:50.181Z,74.77
2023-01-29T07:33:53.723Z,75.13
2023-01-29T07:36:56.941Z,75.64
2023-01-29T07:39:59.301Z,75.37
2023-01-29T07:43:04.143Z,77.69
2023-01-29T07:46:08.839Z,74.97
2023-01-29T07:49:11.574Z,75.02
2023-01-29T07:52:13.936Z,74.78
2023-01-29T07:55:17.080Z,74.82
2023-01-29T07:58:19.749Z,74.47
2023-01-29T08:01:22.473Z,74.36
2023-01-29T08:04:25.407Z,73.84
2023-01-29T08:07:27.865Z,73.89
2023-01-29T08:10:30.608Z,73.99
2023-01-29T08:13:33.534Z,74.47
2023-01-29T08:16:36.329Z,73.94
2023-01-29T08:19:38.820Z,73.77
2023-01-29T08:22:41.424Z,73.23
2023-01-29T08:25:44.313Z,73.07
2023-01-29T08:28:47.027Z,72.71
2023-01-29T08:31:49.441Z,72.26
2023-01-29T08:34:52.165Z,71.99
2023-01-29T08:37:56.171Z,71.96
2023-01-29T08:40:58.804Z,71.87
2023-01-29T08:44:02.424Z,71.91
2023-01-29T08:47:05.234Z,71.44
2023-01-29T08:50:08.299Z,71.81
2023-01-29T08:53:10.959Z,72.35
2023-01-29T08:56:19.573Z,71.91
2023-01-29T08:59:36.324Z,71.93
2023-01-29T09:02:38.750Z,71.54
2023-01-29T09:05:41.799Z,71.72
2023-01-29T09:08:44.375Z,71.23
2023-01-29T09:11:47.067Z,70.66
2023-01-29T09:14:49.446Z,70.70
2023-01-29T09:17:52.270Z,70.11
2023-01-29T09:20:54.653Z,70.42
2023-01-29T09:23:57.350Z,70.43
2023-01-29T09:26:59.728Z,69.89
2023-01-29T09:30:02.513Z,69.92
2023-01-29T09:33:08.341Z,69.88
2023-01-29T09:36:11.016Z,69.70
2023-01-29T09:39:13.397Z,69.35
2023-01-29T09:42:43.802Z,69.24
2023-01-29T09:45:55.119Z,69.22
2023-01-29T09:49:07.601Z,69.24
2023-01-29T09:52:27.200Z,69.38
2023-01-29T09:55:45.935Z,69.14
2023-01-29T09:58:48.537Z,68.87
2023-01-29T10:02:06.157Z,68.83
2023-01-29T10:05:36.442Z,68.57
2023-01-29T10:09:00.511Z,68.71
2023-01-29T10:12:29.789Z,68.87
2023-01-29T10:15:57.975Z,68.90
2023-01-29T10:19:21.273Z,68.63
2023-01-29T10:22:45.526Z,67.86
2023-01-29T10:25:49.079Z,67.81
2023-01-29T10:28:55.357Z,67.68
2023-01-29T10:32:05.040Z,67.58
2023-01-29T10:35:30.612Z,67.71
2023-01-29T10:38:53.348Z,67.87
2023-01-29T10:42:13.767Z,67.70
2023-01-29T10:45:31.545Z,67.89
2023-01-29T10:48:44.721Z,67.88
2023-01-29T10:51:47.381Z,67.55
2023-01-29T10:55:18.012Z,66.90
2023-01-29T10:58:37.084Z,67.12
2023-01-29T11:01:39.488Z,66.83
2023-01-29T11:04:42.231Z,67.26
2023-01-29T11:07:44.814Z,66.75
2023-01-29T11:11:13.536Z,66.01
2023-01-29T11:14:26.863Z,66.28
2023-01-29T11:17:29.737Z,65.97
2023-01-29T11:20:34.318Z,65.81
2023-01-29T11:23:37.012Z,65.37
2023-01-29T11:26:42.393Z,64.51
2023-01-29T11:29:47.995Z,64.41
2023-01-29T11:32:57.044Z,63.98
2023-01-29T11:36:00.606Z,64.34
2023-01-29T11:39:09.183Z,64.13
2023-01-29T11:42:21.030Z,63.94
2023-01-29T11:45:23.423Z,63.47
2023-01-29T11:48:50.243Z,62.71
2023-01-29T11:51:56.055Z,62.80
2023-01-29T11:55:03.747Z,62.16
2023-01-29T11:58:27.598Z,61.91
2023-01-29T12:01:37.316Z,61.23
2023-01-29T12:04:40.366Z,60.77
2023-01-29T12:07:45.513Z,61.06
2023-01-29T12:10:48.319Z,60.56
2023-01-29T12:13:59.759Z,60.13
2023-01-29T12:17:12.247Z,60.02
2023-01-29T12:20:28.175Z,60.31
2023-01-29T12:23:58.323Z,59.23
2023-01-29T12:27:15.868Z,58.58
2023-01-29T12:30:31.588Z,58.83
2023-01-29T12:33:40.078Z,59.58
2023-01-29T12:36:55.404Z,58.71
2023-01-29T12:39:57.780Z,58.65
2023-01-29T12:43:07.132Z,58.28
2023-01-29T12:46:35.097Z,58.02
2023-01-29T12:49:39.758Z,58.52
2023-01-29T12:52:48.300Z,57.99
2023-01-29T12:55:57.675Z,58.21
2023-01-29T12:59:04.787Z,58.18
2023-01-29T13:06:25.517Z,56.51
2023-01-29T13:09:33.340Z,57.27
2023-01-29T13:12:38.697Z,56.89
2023-01-29T13:15:44.300Z,56.99
2023-01-29T13:18:52.861Z,56.45
2023-01-29T13:22:01.257Z,55.84
2023-01-29T13:25:05.770Z,56.13
2023-01-29T13:28:19.000Z,56.89
2023-01-29T13:31:33.744Z,57.25
2023-01-29T13:34:48.663Z,57.12
2023-01-29T13:37:55.246Z,57.29
2023-01-29T13:41:03.677Z,57.23
2023-01-29T13:44:09.503Z,56.84
2023-01-29T13:47:28.213Z,57.42
2023-01-29T13:50:38.563Z,56.71
2023-01-29T13:53:42.390Z,57.80
2023-01-29T13:56:58.450Z,57.69
2023-01-29T14:00:01.119Z,57.31
2023-01-29T14:03:04.771Z,57.94
2023-01-29T14:06:08.698Z,58.29
2023-01-29T14:09:40.167Z,59.53
2023-01-29T14:12:43.996Z,59.84
2023-01-29T14:15:54.566Z,60.38
2023-01-29T14:19:00.173Z,61.13
2023-01-29T14:22:02.665Z,61.01
2023-01-29T14:25:06.728Z,61.37
2023-01-29T14:28:16.679Z,61.19
2023-01-29T14:32:13.758Z,61.83
2023-01-29T14:35:49.348Z,61.48
2023-01-29T14:38:54.509Z,61.33
2023-01-29T14:41:57.876Z,61.69
2023-01-29T14:45:08.571Z,62.06
2023-01-29T14:48:10.942Z,62.09
2023-01-29T14:51:16.808Z,62.59
2023-01-29T14:54:27.817Z,62.29
2023-01-29T14:57:31.819Z,62.62
2023-01-29T15:00:38.917Z,62.90
2023-01-29T15:03:50.958Z,63.01
2023-01-29T15:07:04.381Z,62.23
2023-01-29T15:10:22.701Z,62.32
2023-01-29T15:13:38.243Z,62.34
2023-01-29T15:17:18.178Z,62.49
2023-01-29T15:20:35.835Z,62.48
2023-01-29T15:23:40.741Z,62.31
2023-01-29T15:26:43.458Z,62.30
2023-01-29T15:29:57.562Z,62.66
2023-01-29T15:33:02.154Z,62.95
2023-01-29T15:36:09.357Z,62.94
2023-01-29T15:39:21.532Z,63.14
2023-01-29T15:42:26.865Z,63.52
2023-01-29T15:45:33.996Z,63.28
2023-01-29T15:48:41.052Z,63.75
2023-01-29T15:51:43.692Z,64.10
2023-01-29T15:54:47.177Z,64.21
2023-01-29T15:57:50.260Z,63.30
2023-01-29T16:00:55.578Z,63.74
2023-01-29T16:04:03.139Z,63.83
2023-01-29T16:07:05.659Z,63.67
2023-01-29T16:10:16.527Z,64.17
2023-01-29T16:13:23.597Z,63.85
2023-01-29T16:16:28.199Z,64.16
2023-01-29T16:19:30.935Z,64.32
2023-01-29T16:22:38.331Z,64.56
2023-01-29T16:25:40.812Z,64.96
2023-01-29T16:28:45.321Z,64.62
2023-01-29T16:31:50.886Z,64.32
2023-01-29T16:34:57.955Z,64.72
2023-01-29T16:38:04.768Z,65.07
2023-01-29T16:41:15.512Z,65.50
2023-01-29T16:44:20.929Z,65.37
2023-01-29T16:47:29.763Z,65.33
2023-01-29T16:50:46.245Z,65.08
2023-01-29T16:53:58.278Z,65.47
2023-01-29T16:57:02.221Z,65.40
2023-01-29T17:00:08.765Z,66.09
2023-01-29T17:03:13.207Z,66.15
2023-01-29T17:06:23.326Z,65.90
2023-01-29T17:09:32.890Z,66.02
2023-01-29T17:12:37.360Z,65.91
2023-01-29T17:15:48.244Z,65.84
2023-01-29T17:18:51.276Z,66.17
2023-01-29T17:21:53.801Z,66.21
2023-01-29T17:24:56.537Z,65.90
2023-01-29T17:28:01.578Z,65.76
2023-01-29T17:31:07.219Z,65.68
2023-01-29T17:34:14.913Z,65.95
2023-01-29T17:37:17.853Z,66.05
2023-01-29T17:40:33.531Z,66.30
2023-01-29T17:43:36.234Z,66.83
2023-01-29T17:46:38.601Z,67.34
2023-01-29T17:49:42.165Z,67.47
2023-01-29T17:52:44.547Z,67.48
2023-01-29T17:55:47.575Z,67.89
2023-01-29T17:58:50.007Z,68.33
2023-01-29T18:01:53.711Z,68.34
2023-01-29T18:08:33.787Z,67.71
2023-01-29T18:11:36.532Z,67.50
2023-01-29T18:14:38.897Z,67.50
2023-01-29T18:17:41.838Z,67.65
2023-01-29T18:20:45.120Z,67.41
2023-01-29T18:23:47.817Z,67.31
2023-01-29T18:26:51.309Z,67.60
2023-01-29T18:29:54.056Z,67.64
2023-01-29T18:32:57.620Z,67.37
2023-01-29T18:36:00.804Z,67.58
2023-01-29T18:39:03.200Z,67.95
2023-01-29T18:42:05.930Z,67.39
2023-01-29T18:45:08.762Z,67.54
2023-01-29T18:48:11.381Z,67.50
2023-01-29T18:51:13.933Z,67.38
2023-01-29T18:54:18.261Z,67.59
2023-01-29T18:58:27.174Z,67.56
2023-01-29T19:00:43.834Z,67.60
2023-01-29T19:03:46.249Z,67.95
2023-01-29T19:06:48.913Z,68.08
2023-01-29T19:09:51.317Z,67.59
2023-01-29T19:12:53.941Z,67.62
2023-01-29T19:15:56.434Z,67.99
2023-01-29T19:18:59.879Z,67.98
2023-01-29T19:22:02.506Z,67.82
2023-01-29T19:25:06.236Z,67.82
2023-01-29T19:28:09.040Z,68.27
2023-01-29T19:31:11.735Z,68.53
2023-01-29T19:34:14.595Z,68.27
2023-01-29T19:37:17.294Z,67.99
2023-01-29T19:40:19.863Z,67.77
2023-01-29T19:43:22.616Z,68.25
2023-01-29T19:46:24.964Z,69.26
2023-01-29T19:49:27.588Z,68.91
2023-01-29T19:52:50.641Z,68.74
2023-01-29T19:56:01.981Z,68.77
2023-01-29T19:59:05.127Z,68.44
2023-01-29T20:02:09.636Z,68.48
2023-01-29T20:05:13.088Z,68.21
2023-01-29T20:08:15.555Z,68.68
2023-01-29T20:11:20.801Z,68.38
2023-01-29T20:14:23.139Z,68.68
2023-01-29T20:17:25.814Z,68.85
2023-01-29T20:20:29.843Z,69.27
2023-01-29T20:23:38.400Z,69.07
2023-01-29T20:26:41.094Z,69.28
2023-01-29T20:29:45.278Z,69.03
2023-01-29T20:32:47.611Z,68.75
2023-01-29T20:36:10.850Z,69.06
2023-01-29T20:39:13.362Z,69.00
2023-01-29T20:42:15.996Z,69.05
2023-01-29T20:45:18.660Z,69.38
2023-01-29T20:48:21.299Z,69.70
2023-01-29T20:51:24.033Z,70.01
2023-01-29T20:54:26.905Z,69.66
2023-01-29T20:57:29.732Z,70.14
2023-01-29T21:00:32.367Z,69.91
2023-01-29T21:03:34.751Z,69.87
2023-01-29T21:06:37.358Z,69.85
2023-01-29T21:09:39.711Z,70.21
2023-01-29T21:12:42.340Z,70.19
2023-01-29T21:15:44.972Z,70.05
2023-01-29T21:18:47.613Z,70.03
2023-01-29T21:21:49.963Z,70.01
2023-01-29T21:24:52.593Z,69.71
2023-01-29T21:27:55.109Z,69.87
2023-01-29T21:31:11.816Z,70.07
2023-01-29T21:34:14.185Z,70.19
2023-01-29T21:37:16.861Z,70.32
2023-01-29T21:40:21.281Z,70.44
2023-01-29T21:43:23.909Z,70.13
2023-01-29T21:46:26.289Z,70.28
2023-01-29T21:49:31.027Z,70.52
2023-01-29T21:52:33.404Z,70.36
2023-01-29T21:55:36.097Z,70.86
2023-01-29T21:58:38.425Z,70.77
2023-01-29T22:01:41.089Z,70.52
2023-01-29T22:04:43.731Z,70.23
2023-01-29T22:07:46.324Z,70.39
2023-01-29T22:10:49.039Z,70.05
2023-01-29T22:13:51.670Z,70.23
2023-01-29T22:16:54.375Z,70.04
2023-01-29T22:19:56.755Z,70.20
2023-01-29T22:23:00.557Z,69.89
2023-01-29T22:26:04.578Z,69.86
2023-01-29T22:29:07.200Z,69.60
2023-01-29T22:32:10.814Z,69.88
2023-01-29T22:35:13.824Z,69.81
2023-01-29T22:38:16.238Z,69.79
2023-01-29T22:41:18.875Z,69.76
2023-01-29T22:44:21.280Z,69.86
2023-01-29T22:47:23.904Z,69.80
2023-01-29T22:50:26.262Z,69.61
2023-01-29T22:53:28.853Z,70.26
2023-01-29T22:56:31.245Z,69.98
2023-01-29T22:59:33.981Z,69.72
2023-01-29T23:02:36.534Z,69.84
2023-01-29T23:05:39.208Z,69.80
2023-01-29T23:08:41.710Z,69.91
2023-01-29T23:11:44.349Z,70.21
2023-01-29T23:14:47.064Z,69.88
2023-01-29T23:17:49.651Z,69.71
2023-01-29T23:20:56.939Z,69.84
2023-01-29T23:24:00.570Z,69.81
2023-01-29T23:27:14.677Z,69.87
2023-01-29T23:30:17.646Z,69.71
2023-01-29T23:33:20.421Z,69.71
2023-01-29T23:36:23.112Z,69.68
2023-01-29T23:39:25.440Z,69.69
2023-01-29T23:42:28.055Z,69.46
2023-01-29T23:45:30.390Z,69.35
2023-01-29T23:48:33.057Z,69.44
2023-01-29T23:51:35.434Z,69.52
2023-01-29T23:54:38.078Z,70.36
2023-01-29T23:57:40.391Z,69.97
